x

Port Aransas, Tx (ptat2) Weather Station

5:00pm - Mon 5th Dec 2016 All times are CST. -6 hours from GMT.

  • Wind
    7mph, 9mph gusts
  • Sea Temp 64°f
  • Air Temp 57°f
  • Sea Pressure 1008.7mb
  • Port Aransas, Tx
  • Port Aransas, Tx

More Historic Weather Station data

Upgrade to MSW Pro to gain access to the past 30 days of data for over 8000 Wavebouys and Weather Stations around the globe.

Join Pro

Comparision Forecast

View Surf forecast
   
Mon 12/05 5:00pm 7 9 mph 1008.7mb 64f 57f
4:00pm 10 13 mph 1008.5mb 64f 58f
3:00pm 10 14 mph 1008.7mb 64f 57f
2:00pm 10 13 mph 1009mb 64f 55f
1:00pm 11 14 mph 1009.9mb 64f 55f
12:00pm 13 17 mph 1010.4mb 64f 54f
11:00am 14 16 mph 1011.5mb 64f 53f
10:00am 15 18 mph 1011.4mb 64f 52f
9:00am 14 18 mph 1010.9mb 64f 52f
8:00am 16 18 mph 1010.8mb 64f 51f
7:00am 13 15 mph 1010.7mb 64f 52f
6:00am 11 14 mph 1010.4mb 64f 52f
5:00am 10 13 mph 1010.8mb 65f 52f
4:00am 11 15 mph 1011.6mb 65f 53f
3:00am 18 21 mph 1010mb 65f 53f
2:00am 21 28 mph 1010.1mb 65f 53f
1:00am 22 26 mph 1011.2mb 65f 54f
12:00am 21 25 mph 1011.6mb 65f 54f
Sun 12/04 11:00pm 25 29 mph 1011.8mb 66f 54f
10:00pm 20 23 mph 1012.6mb 65f 54f
9:00pm 18 22 mph 1012.7mb 65f 55f
8:00pm 23 25 mph 1011.9mb 65f 55f
7:00pm 23 26 mph 1012.4mb 65f 55f
6:00pm 22 26 mph 1011.7mb 66f 57f
5:00pm 22 24 mph 1010.8mb 66f 57f
4:00pm 23 26 mph 1011.4mb 65f 56f
3:00pm 25 29 mph 1011mb 65f 56f
2:00pm 22 26 mph 1011.2mb 65f 56f
1:00pm 24 28 mph 1011.3mb 66f 56f
12:00pm 25 28 mph 1011.6mb 66f 56f
11:00am 23 25 mph 1012.7mb 66f 56f
10:00am 17 22 mph 1013.5mb 66f 55f
9:00am 20 23 mph 1012mb 66f 56f
8:00am 22 24 mph 1010.6mb 67f 56f
7:00am 26 29 mph 1009.3mb 67f 57f
6:00am 23 26 mph 1010.2mb 67f 57f
5:00am 21 23 mph 1011.2mb 67f 57f
4:00am 17 21 mph 1010.5mb 67f 56f
3:00am 21 24 mph 1010.2mb 67f 58f
2:00am 17 18 mph 1008.9mb 67f 62f
1:00am 21 24 mph 1008.8mb 67f 63f
12:00am 18 21 mph 1011.1mb 67f 66f
Sat 12/03 11:00pm 17 18 mph 1010.5mb 67f 64f
10:00pm 14 16 mph 1012mb 67f 62f
9:00pm 17 20 mph 1010.3mb 67f 62f
8:00pm 18 20 mph 1010.4mb 68f 59f
7:00pm 16 21 mph 1010.9mb 68f 58f
6:00pm 21 25 mph 1010.2mb 68f 59f
5:00pm 17 23 mph 1009.7mb 68f 60f
4:00pm 20 22 mph 1009.2mb 68f 60f
3:00pm 23 24 mph 1008.6mb 68f 59f
2:00pm 17 21 mph 1009.2mb 68f 61f
1:00pm 21 23 mph 1009.5mb 68f 61f
12:00pm 15 16 mph 1010.5mb 68f 61f
11:00am 16 20 mph 1011.2mb 68f 60f
10:00am 16 17 mph 1012.1mb 68f 60f
9:00am 14 17 mph 1012.2mb 69f 62f
8:00am 9 11 mph 1011.4mb 69f 63f
7:00am 9 11 mph 1010.6mb 69f 62f
6:00am 10 11 mph 1010.1mb 69f 63f
5:00am 11 13 mph 1009.8mb 69f 63f
4:00am 11 14 mph 1010.2mb 69f 64f
3:00am 11 13 mph 1010.4mb 69f 64f
2:00am 11 14 mph 1010.8mb 69f 64f
1:00am 8 10 mph 1011.3mb 69f 66f
12:00am 20 22 mph 1011.5mb 69f 68f
Fri 12/02 11:00pm 22 24 mph 1011.7mb 69f 69f
10:00pm 24 26 mph 1012.4mb 69f 69f
9:00pm 25 28 mph 1012.1mb 69f 69f
8:00pm 26 29 mph 1012.1mb 69f 69f
7:00pm 28 31 mph 1011.8mb 69f 70f
6:00pm 26 31 mph 1011.6mb 69f 70f
5:00pm 30 34 mph 1010.9mb 70f 70f
4:00pm 26 29 mph 1011.6mb 70f 71f
3:00pm 24 26 mph 1012.1mb 69f 71f
2:00pm 21 24 mph 1012.7mb 69f 71f
1:00pm 20 22 mph 1013.5mb 69f 71f
12:00pm 18 21 mph 1014.2mb 69f 71f
11:00am 23 24 mph 1014.7mb 70f 72f
10:00am 21 23 mph 1015mb 70f 72f
9:00am 17 18 mph 1015.2mb 70f 72f
8:00am 18 21 mph 1014.7mb 70f 72f
7:00am 16 18 mph 1014.7mb 70f 72f
6:00am 16 18 mph 1014.3mb 70f 72f
5:00am 14 15 mph 1014.6mb 70f 72f
4:00am 15 17 mph 1014.8mb 70f 72f
3:00am 18 20 mph 1014.7mb 70f 72f
2:00am 18 21 mph 1014.9mb 70f 71f
1:00am 21 23 mph 1015.1mb 70f 71f